Time;durP1;ratioP1;P1;durP2;ratioP2;P2;SDS_P1;SDS_P2;PMS_P1;PMS_P2;Temp;Humidity;BMP_temperature;BMP_pressure;BME280_temperature;BME280_humidity;BME280_pressure;Samples;Min_cycle;Max_cycle;Signal;HPM_P1;HPM_P2
2023/08/30 00:01:08;;;;;;;5.22;3.00;;;16.90;99.90;;;17.16;100.00;100322.50;5223026;28;20049;-52
2023/08/30 00:03:40;;;;;;;4.90;2.75;;;16.90;99.90;;;17.13;100.00;100335.66;5239466;28;20049;-50
2023/08/30 00:06:13;;;;;;;4.68;2.90;;;16.80;99.90;;;17.09;100.00;100330.38;5227019;28;20095;-51
2023/08/30 00:11:18;;;;;;;4.28;2.63;;;16.80;99.90;;;17.01;100.00;100321.59;5218030;28;20060;-69
2023/08/30 00:14:28;;;;;;;4.93;2.75;;;16.70;99.90;;;16.98;100.00;100321.59;5323768;27;20386;-50
2023/08/30 00:17:01;;;;;;;4.90;2.75;;;16.70;99.90;;;16.98;100.00;100321.59;5298397;28;20047;-49
2023/08/30 00:19:34;;;;;;;4.35;2.78;;;16.70;99.90;;;16.98;100.00;100321.59;5284774;28;20043;-50
2023/08/30 00:23:23;;;;;;;4.97;2.78;;;16.70;99.90;;;16.96;100.00;100333.88;5260910;27;20408;-50
2023/08/30 00:25:56;;;;;;;4.72;2.92;;;16.70;99.90;;;16.93;100.00;100325.97;5258076;28;20523;-51
2023/08/30 00:28:28;;;;;;;4.97;3.00;;;16.70;99.90;;;16.88;100.00;100322.44;5254835;28;20624;-50
2023/08/30 00:31:01;;;;;;;5.88;2.78;;;16.60;99.90;;;16.84;100.00;100318.06;5230870;28;20408;-51
2023/08/30 00:33:35;;;;;;;4.45;2.75;;;16.60;99.90;;;16.79;100.00;100318.06;5222198;28;20533;-50
2023/08/30 00:36:07;;;;;;;4.50;2.92;;;16.50;99.90;;;16.75;100.00;100310.13;5257175;28;20067;-50
2023/08/30 00:38:41;;;;;;;3.90;2.88;;;16.50;99.90;;;16.71;100.00;100317.16;5226711;28;20049;-50
2023/08/30 00:41:14;;;;;;;6.00;2.80;;;16.40;99.90;;;16.67;100.00;100314.47;5223783;28;20114;-55
2023/08/30 00:43:48;;;;;;;5.03;3.00;;;16.40;99.90;;;16.63;100.00;100312.75;5255948;28;20327;-50
2023/08/30 00:46:20;;;;;;;5.68;3.00;;;16.40;99.90;;;16.61;100.00;100317.09;5235422;28;20040;-49
2023/08/30 00:48:52;;;;;;;5.35;2.92;;;16.40;99.90;;;16.60;100.00;100315.34;5225515;28;20090;-50
2023/08/30 00:51:25;;;;;;;5.68;3.25;;;16.30;99.90;;;16.60;100.00;100307.44;5225756;28;20527;-51
2023/08/30 00:54:00;;;;;;;6.22;3.47;;;16.40;99.90;;;16.60;100.00;100303.06;5232413;28;20048;-50
2023/08/30 00:56:33;;;;;;;6.03;3.53;;;16.40;99.90;;;16.59;100.00;100305.69;5235780;28;20137;-50
2023/08/30 00:59:06;;;;;;;5.47;3.58;;;16.30;99.90;;;16.60;100.00;100300.44;5220609;28;20386;-52
2023/08/30 01:01:39;;;;;;;6.25;3.53;;;16.40;99.90;;;16.62;100.00;100300.44;5229123;28;20047;-49
2023/08/30 01:04:14;;;;;;;5.28;3.15;;;16.30;99.90;;;16.63;100.00;100295.19;5211122;28;20045;-50
2023/08/30 01:06:48;;;;;;;5.97;3.55;;;16.30;99.90;;;16.62;100.00;100289.91;5222489;28;20049;-49
2023/08/30 01:09:24;;;;;;;5.97;3.38;;;16.30;99.90;;;16.60;100.00;100281.13;5238177;28;20045;-49
2023/08/30 01:12:06;;;;;;;4.55;3.28;;;16.30;99.90;;;16.59;100.00;100282.88;5222579;28;20040;-49
2023/08/30 01:14:46;;;;;;;5.85;3.72;;;16.30;99.90;;;16.60;100.00;100281.13;5242357;28;20644;-49
2023/08/30 01:17:22;;;;;;;5.30;3.50;;;16.30;99.90;;;16.60;100.00;100275.88;5226204;28;20033;-49
2023/08/30 01:20:00;;;;;;;5.35;3.30;;;16.30;99.90;;;16.60;100.00;100278.50;5218004;28;20052;-48
2023/08/30 01:22:46;;;;;;;6.15;3.83;;;16.30;99.90;;;16.63;100.00;100265.38;5228125;28;20160;-50
2023/08/30 01:25:34;;;;;;;5.43;3.42;;;16.40;99.90;;;16.66;100.00;100273.25;5238379;28;20103;-49
2023/08/30 01:28:09;;;;;;;5.35;3.63;;;16.40;99.90;;;16.69;100.00;100270.63;5227725;28;20102;-50
2023/08/30 01:30:44;;;;;;;5.38;3.40;;;16.40;99.90;;;16.73;100.00;100267.16;5238147;28;20048;-51
2023/08/30 01:33:18;;;;;;;5.65;3.55;;;16.50;99.90;;;16.75;100.00;100268.03;5212846;28;20616;-49
2023/08/30 01:35:51;;;;;;;5.22;3.13;;;16.40;99.90;;;16.74;100.00;100263.66;5211433;28;20103;-49
2023/08/30 01:38:25;;;;;;;6.70;3.63;;;16.50;99.90;;;16.77;100.00;100251.38;5208300;28;20053;-50
2023/08/30 01:41:00;;;;;;;5.28;3.30;;;16.50;99.90;;;16.79;100.00;100257.50;5216002;28;20238;-49
2023/08/30 01:43:34;;;;;;;5.22;3.42;;;16.50;99.90;;;16.77;100.00;100253.13;5205171;28;20036;-49
2023/08/30 01:46:11;;;;;;;4.97;3.63;;;16.60;99.90;;;16.71;100.00;100239.97;5223646;28;20558;-49
2023/08/30 01:48:44;;;;;;;5.20;3.00;;;16.50;99.90;;;16.73;100.00;100249.59;5210704;28;20045;-49
2023/08/30 01:51:17;;;;;;;5.28;3.25;;;16.50;99.90;;;16.75;100.00;100250.47;5202664;28;20052;-50
2023/08/30 01:53:53;;;;;;;5.72;3.65;;;16.50;99.90;;;16.79;100.00;100246.09;5204841;28;20053;-49
2023/08/30 01:56:25;;;;;;;4.35;2.83;;;16.50;99.90;;;16.80;100.00;100243.47;5207831;28;20421;-49
2023/08/30 01:59:00;;;;;;;4.50;2.83;;;16.60;99.90;;;16.80;100.00;100246.09;5199663;28;20490;-50
2023/08/30 02:01:35;;;;;;;5.53;3.22;;;16.60;99.90;;;16.82;100.00;100246.09;5204505;28;20594;-49
2023/08/30 02:04:07;;;;;;;5.82;2.95;;;16.50;99.90;;;16.83;100.00;100241.75;5218238;28;20076;-49
2023/08/30 02:06:48;;;;;;;4.95;3.28;;;16.60;99.90;;;16.83;100.00;100249.63;5233663;28;20045;-49
2023/08/30 02:09:30;;;;;;;4.93;3.33;;;16.60;99.90;;;16.84;100.00;100244.38;5215794;28;20049;-48
2023/08/30 02:12:08;;;;;;;4.57;3.28;;;16.60;99.90;;;16.86;100.00;100247.88;5208556;28;20112;-49
2023/08/30 02:14:45;;;;;;;5.03;3.45;;;16.60;99.90;;;16.89;100.00;100258.41;5213530;28;20049;-49
2023/08/30 02:17:19;;;;;;;5.25;3.20;;;16.60;99.90;;;16.92;100.00;100258.41;5199366;28;20049;-49
2023/08/30 02:19:53;;;;;;;5.65;3.40;;;16.70;99.90;;;16.94;100.00;100250.50;5215372;28;20140;-49
2023/08/30 02:22:26;;;;;;;4.72;3.25;;;16.70;99.90;;;16.94;100.00;100251.38;5211279;28;20350;-50
2023/08/30 02:24:58;;;;;;;4.43;2.90;;;16.70;99.90;;;16.95;100.00;100246.97;5219880;28;20230;-51
2023/08/30 02:27:31;;;;;;;5.82;3.72;;;16.70;99.90;;;16.96;100.00;100244.38;5214883;28;20057;-49
2023/08/30 02:30:07;;;;;;;6.45;3.45;;;16.70;99.90;;;16.95;100.00;100252.25;5206676;28;20041;-50
2023/08/30 02:32:40;;;;;;;6.03;3.55;;;16.70;99.90;;;16.94;100.00;100243.47;5193170;28;20048;-49
2023/08/30 02:35:12;;;;;;;4.88;3.28;;;16.70;99.90;;;16.95;100.00;100247.88;5194377;28;20049;-49
2023/08/30 02:37:45;;;;;;;5.15;3.10;;;16.70;99.90;;;16.96;100.00;100251.41;5218901;28;20047;-50
2023/08/30 02:40:17;;;;;;;6.35;3.53;;;16.70;99.90;;;16.95;100.00;100253.16;5206844;28;20041;-51
2023/08/30 02:42:50;;;;;;;5.43;3.50;;;16.70;99.90;;;16.97;100.00;100239.97;5191605;28;20053;-49
2023/08/30 02:45:24;;;;;;;5.75;3.30;;;16.70;99.90;;;16.97;100.00;100235.59;5209713;28;20398;-49
2023/08/30 02:47:57;;;;;;;4.18;3.10;;;16.70;99.90;;;16.97;100.00;100240.84;5218917;28;20523;-49
2023/08/30 02:50:30;;;;;;;5.13;3.22;;;16.70;99.90;;;16.97;100.00;100239.97;5202929;28;20036;-48
2023/08/30 02:53:01;;;;;;;6.47;3.50;;;16.70;99.90;;;16.97;100.00;100245.25;5218362;28;20056;-50
2023/08/30 02:55:34;;;;;;;4.68;3.55;;;16.70;99.90;;;16.92;100.00;100242.59;5221762;28;20052;-49
2023/08/30 02:58:06;;;;;;;5.28;3.30;;;16.70;99.90;;;16.91;100.00;100240.84;5199596;28;20076;-49
2023/08/30 03:00:40;;;;;;;7.03;3.67;;;16.70;99.90;;;16.89;100.00;100240.00;5230208;28;20102;-51
2023/08/30 03:03:14;;;;;;;4.57;3.20;;;16.60;99.90;;;16.91;100.00;100234.72;5206242;28;20037;-49
2023/08/30 03:05:50;;;;;;;6.32;3.38;;;16.70;99.90;;;16.89;100.00;100231.19;5206136;28;20045;-50
2023/08/30 03:08:24;;;;;;;5.43;3.08;;;16.70;99.90;;;16.89;100.00;100226.81;5217863;28;20072;-49
2023/08/30 03:10:56;;;;;;;4.72;3.17;;;16.70;99.90;;;16.90;100.00;100222.44;5218622;28;20067;-50
2023/08/30 03:13:29;;;;;;;5.13;3.03;;;16.60;99.90;;;16.89;100.00;100216.28;5214468;28;20040;-50
2023/08/30 03:16:03;;;;;;;5.80;3.00;;;16.60;99.90;;;16.87;100.00;100215.41;5197581;28;20064;-50
2023/08/30 03:18:35;;;;;;;6.43;3.67;;;16.60;99.90;;;16.87;100.00;100223.28;5190472;28;20095;-50
2023/08/30 03:21:09;;;;;;;5.90;3.42;;;16.60;99.90;;;16.86;100.00;100221.53;5205761;28;20457;-50
2023/08/30 03:23:51;;;;;;;4.72;3.15;;;16.60;99.90;;;16.85;100.00;100219.78;5227900;28;20135;-49
2023/08/30 03:26:23;;;;;;;5.65;3.42;;;16.60;99.90;;;16.82;100.00;100222.41;5226082;28;20072;-49
2023/08/30 03:28:56;;;;;;;5.40;3.58;;;16.60;99.90;;;16.78;100.00;100221.56;5217914;28;20040;-48
2023/08/30 03:31:33;;;;;;;4.45;3.08;;;16.60;99.90;;;16.75;100.00;100220.66;5226541;28;20052;-49
2023/08/30 03:34:06;;;;;;;4.95;3.28;;;16.60;99.90;;;16.76;100.00;100225.06;5209416;28;20047;-49
2023/08/30 03:36:39;;;;;;;5.80;3.55;;;16.50;99.90;;;16.71;100.00;100222.44;5212860;28;20048;-50
2023/08/30 03:39:12;;;;;;;5.63;3.72;;;16.50;99.90;;;16.67;100.00;100222.38;5205548;28;20513;-50
2023/08/30 03:41:47;;;;;;;6.28;3.53;;;16.50;99.90;;;16.65;100.00;100216.25;5213963;28;20072;-50
2023/08/30 03:44:20;;;;;;;5.95;3.42;;;16.50;99.90;;;16.60;100.00;100217.97;5211159;28;20048;-49
2023/08/30 03:46:56;;;;;;;5.35;3.53;;;16.50;99.90;;;16.59;100.00;100218.88;5193226;28;20123;-49
2023/08/30 03:49:29;;;;;;;6.70;4.25;;;16.40;99.90;;;16.54;100.00;100218.84;5204791;28;20033;-50
2023/08/30 03:52:01;;;;;;;6.90;3.83;;;16.40;99.90;;;16.51;100.00;100222.38;5205719;28;20053;-49
2023/08/30 03:54:34;;;;;;;5.43;3.42;;;16.30;99.90;;;16.48;100.00;100214.44;5193021;28;20041;-49
2023/08/30 03:57:07;;;;;;;5.43;3.40;;;16.30;99.90;;;16.47;100.00;100212.69;5214900;28;20052;-49
2023/08/30 03:59:42;;;;;;;5.82;3.33;;;16.30;99.90;;;16.45;100.00;100209.22;5212747;28;20090;-50
2023/08/30 04:02:17;;;;;;;5.63;3.60;;;16.30;99.90;;;16.41;100.00;100202.16;5206729;28;20059;-50
2023/08/30 04:04:49;;;;;;;6.25;3.80;;;16.20;99.90;;;16.34;100.00;100210.94;5217721;28;20059;-49
2023/08/30 04:07:22;;;;;;;7.03;4.15;;;16.20;99.90;;;16.24;100.00;100217.06;5198700;28;20052;-50
2023/08/30 04:09:54;;;;;;;5.88;4.05;;;16.10;99.90;;;16.19;100.00;100205.63;5197187;28;20128;-49
2023/08/30 04:12:28;;;;;;;5.65;3.63;;;16.10;99.90;;;16.16;100.00;100201.22;5205401;28;20045;-49
2023/08/30 04:15:01;;;;;;;8.10;3.75;;;16.00;99.90;;;16.13;100.00;100203.88;5205771;28;20041;-50
2023/08/30 04:17:36;;;;;;;5.70;3.38;;;16.00;99.90;;;16.09;100.00;100198.59;5200225;28;20404;-48
2023/08/30 04:20:11;;;;;;;5.78;3.40;;;15.90;99.90;;;16.07;100.00;100195.09;5222087;28;20053;-50
2023/08/30 04:22:43;;;;;;;5.53;3.45;;;15.90;99.90;;;16.07;100.00;100195.09;5208344;28;20128;-49
2023/08/30 04:25:18;;;;;;;5.18;3.47;;;15.90;99.90;;;16.01;100.00;100198.56;5192697;28;20052;-49
2023/08/30 04:27:51;;;;;;;6.47;3.80;;;15.80;99.90;;;15.96;100.00;100198.53;5190828;28;20053;-49
2023/08/30 04:30:24;;;;;;;6.85;3.65;;;15.80;99.90;;;15.93;100.00;100187.16;5204826;28;20052;-50
2023/08/30 04:32:59;;;;;;;6.60;3.60;;;15.80;99.90;;;15.90;100.00;100187.13;5205141;28;20121;-50
2023/08/30 04:35:32;;;;;;;6.10;3.42;;;15.70;99.90;;;15.86;100.00;100186.25;5213187;28;20045;-49
2023/08/30 04:38:05;;;;;;;5.40;3.50;;;15.70;99.90;;;15.83;100.00;100185.34;5197102;28;20156;-50
2023/08/30 04:40:37;;;;;;;5.85;3.50;;;15.70;99.90;;;15.78;100.00;100182.72;5197051;28;20044;-50
2023/08/30 04:43:11;;;;;;;5.93;3.70;;;15.60;99.90;;;15.75;100.00;100185.34;5205040;28;20064;-48
2023/08/30 04:45:49;;;;;;;6.45;3.42;;;15.60;99.90;;;15.73;100.00;100185.34;5222727;28;20047;-49
2023/08/30 04:48:24;;;;;;;5.55;3.45;;;15.50;99.90;;;15.71;100.00;100191.44;5190538;28;20049;-49
2023/08/30 04:51:02;;;;;;;6.40;3.78;;;15.50;99.90;;;15.65;100.00;100186.19;5210634;28;20429;-50
2023/08/30 04:53:38;;;;;;;5.78;3.50;;;15.50;99.90;;;15.63;100.00;100177.41;5192206;28;20029;-50
2023/08/30 04:56:14;;;;;;;6.25;3.78;;;15.50;99.90;;;15.62;100.00;100186.16;5200284;28;20049;-48
2023/08/30 04:58:47;;;;;;;5.80;3.63;;;15.50;99.90;;;15.63;100.00;100182.66;5221596;28;20041;-50
2023/08/30 05:01:20;;;;;;;6.55;3.40;;;15.50;99.90;;;15.64;100.00;100177.41;5212963;28;20436;-50
2023/08/30 05:04:01;;;;;;;6.60;3.78;;;15.50;99.90;;;15.65;100.00;100175.69;5205314;28;20405;-49
2023/08/30 05:06:33;;;;;;;6.43;3.40;;;15.50;99.90;;;15.64;100.00;100182.66;5205188;28;20052;-49
2023/08/30 05:09:06;;;;;;;6.57;3.72;;;15.50;99.90;;;15.65;100.00;100181.81;5206939;28;20121;-48
2023/08/30 05:11:42;;;;;;;6.45;3.78;;;15.50;99.90;;;15.68;100.00;100180.94;5200647;28;20040;-48
2023/08/30 05:14:15;;;;;;;4.82;3.10;;;15.50;99.90;;;15.66;100.00;100178.31;5208789;28;20421;-49
2023/08/30 05:16:47;;;;;;;6.90;3.38;;;15.40;99.90;;;15.67;100.00;100179.19;5208521;28;20049;-49
2023/08/30 05:19:21;;;;;;;3.80;2.80;;;15.50;99.90;;;15.67;100.00;100184.44;5190902;28;20049;-49
2023/08/30 05:21:55;;;;;;;6.20;3.58;;;15.50;99.90;;;15.69;100.00;100183.56;5204163;28;20037;-49
2023/08/30 05:24:28;;;;;;;6.25;3.70;;;15.50;99.90;;;15.71;100.00;100180.94;5208424;28;20510;-50
2023/08/30 05:27:01;;;;;;;6.80;3.65;;;15.50;99.90;;;15.74;100.00;100175.69;5225278;28;20059;-49
2023/08/30 05:29:36;;;;;;;4.90;3.35;;;15.50;99.90;;;15.76;100.00;100173.06;5217796;22;20065;-67
2023/08/30 05:32:08;;;;;;;7.60;4.03;;;15.60;99.90;;;15.76;100.00;100163.44;5206457;28;20076;-68
2023/08/30 05:35:13;;;;;;;7.43;4.22;;;15.60;99.90;;;15.76;100.00;100160.81;5160157;28;20528;-67
2023/08/30 05:38:10;;;;;;;6.85;4.03;;;15.60;99.90;;;15.75;100.00;100166.94;5226878;28;20079;-68
2023/08/30 05:41:12;;;;;;;6.28;3.50;;;15.60;99.90;;;15.73;100.00;100152.94;5205965;28;20388;-68
2023/08/30 05:43:44;;;;;;;6.57;3.70;;;15.60;99.90;;;15.70;100.00;100153.78;5223539;28;20052;-68
2023/08/30 05:46:16;;;;;;;6.47;3.90;;;15.60;99.90;;;15.73;100.00;100148.53;5202550;28;20057;-68
2023/08/30 05:48:49;;;;;;;6.78;4.32;;;15.60;99.90;;;15.75;100.00;100153.81;5216145;28;20044;-68
2023/08/30 05:51:23;;;;;;;7.47;3.72;;;15.60;99.90;;;15.79;100.00;100155.59;5203959;28;20474;-68
2023/08/30 05:53:55;;;;;;;6.38;3.80;;;15.60;99.90;;;15.84;100.00;100148.56;5197069;28;20041;-68
2023/08/30 05:56:27;;;;;;;7.65;4.05;;;15.70;99.90;;;15.86;100.00;100146.84;5202218;28;20045;-68
2023/08/30 05:58:59;;;;;;;8.52;4.32;;;15.70;99.90;;;15.89;100.00;100141.56;5206132;28;20503;-68
2023/08/30 06:01:32;;;;;;;8.13;4.00;;;15.70;99.90;;;15.89;100.00;100146.84;5205251;28;20056;-67
2023/08/30 06:04:06;;;;;;;7.03;3.95;;;15.70;99.90;;;15.94;100.00;100146.84;5214655;28;20037;-62
2023/08/30 06:06:39;;;;;;;7.03;3.92;;;15.80;99.90;;;16.01;100.00;100141.63;5225631;28;20499;-62
2023/08/30 06:09:12;;;;;;;6.60;3.63;;;15.80;99.90;;;16.07;100.00;100143.38;5225765;28;20499;-62
2023/08/30 06:11:44;;;;;;;8.50;4.15;;;15.90;99.90;;;16.14;100.00;100141.66;5207707;28;20479;-61
2023/08/30 06:14:16;;;;;;;5.25;3.42;;;16.00;99.90;;;16.23;100.00;100139.91;5225581;28;20037;-62
2023/08/30 06:16:48;;;;;;;5.72;3.53;;;16.00;99.90;;;16.35;100.00;100140.78;5225347;28;20052;-61
2023/08/30 06:19:21;;;;;;;7.00;3.88;;;16.10;99.90;;;16.43;100.00;100139.94;5225235;28;20044;-62
2023/08/30 06:21:54;;;;;;;8.20;4.15;;;16.20;99.90;;;16.44;100.00;100136.44;5225276;28;20047;-63
2023/08/30 06:24:26;;;;;;;8.02;3.97;;;16.20;99.90;;;16.50;100.00;100146.09;5225277;28;20051;-63
2023/08/30 06:26:59;;;;;;;7.22;4.32;;;16.20;99.90;;;16.57;100.00;100139.06;5225358;28;20123;-61
2023/08/30 06:29:31;;;;;;;6.65;3.60;;;16.30;99.90;;;16.65;100.00;100145.19;5225160;28;20049;-61
2023/08/30 06:32:04;;;;;;;8.32;4.15;;;16.40;99.90;;;16.74;100.00;100140.81;5225352;28;20063;-61
2023/08/30 06:34:37;;;;;;;7.68;4.35;;;16.50;99.90;;;16.86;100.00;100137.31;5225219;28;20084;-61
2023/08/30 06:37:10;;;;;;;6.60;4.03;;;16.60;99.90;;;17.03;100.00;100143.44;5224687;28;20052;-64
2023/08/30 06:39:42;;;;;;;7.13;3.80;;;16.70;99.90;;;17.33;100.00;100144.22;5212922;28;20038;-65
2023/08/30 06:42:14;;;;;;;6.75;3.70;;;17.00;99.90;;;17.61;100.00;100139.75;5212250;28;20120;-65
2023/08/30 06:44:46;;;;;;;8.20;3.92;;;17.30;99.90;;;17.80;100.00;100135.28;5211875;28;20041;-65
2023/08/30 06:47:18;;;;;;;8.73;5.10;;;17.50;99.90;;;17.95;100.00;100134.34;5211372;28;20045;-64
2023/08/30 06:49:51;;;;;;;6.60;4.25;;;17.70;99.90;;;17.99;100.00;100126.38;5211791;28;20041;-62
2023/08/30 06:52:24;;;;;;;6.80;4.38;;;17.70;99.90;;;18.06;100.00;100122.84;5220532;28;20045;-63
2023/08/30 06:54:56;;;;;;;9.02;3.55;;;17.80;99.90;;;18.15;100.00;100121.91;5216202;28;20052;-62
2023/08/30 06:57:28;;;;;;;7.57;4.00;;;17.90;99.90;;;18.30;100.00;100118.28;5216447;28;20127;-65
2023/08/30 07:00:07;;;;;;;9.48;4.13;;;18.00;99.90;;;18.36;100.00;100116.47;5225680;28;20519;-65
2023/08/30 07:02:39;;;;;;;7.68;3.80;;;18.10;99.90;;;18.54;100.00;100117.22;5222131;28;20049;-64
2023/08/30 07:05:11;;;;;;;6.18;3.45;;;18.30;99.90;;;18.78;100.00;100119.69;5207081;28;20299;-64
2023/08/30 07:07:45;;;;;;;7.07;4.10;;;18.40;99.90;;;19.02;100.00;100123.84;5222785;28;20653;-65
2023/08/30 07:10:17;;;;;;;8.40;4.32;;;18.60;99.90;;;19.29;100.00;100113.84;5216195;28;20045;-63
2023/08/30 07:12:49;;;;;;;7.18;3.85;;;18.80;99.90;;;19.51;100.00;100108.31;5219416;28;20048;-64
2023/08/30 07:15:21;;;;;;;8.27;4.72;;;19.00;99.90;;;19.64;100.00;100114.34;5203046;28;20049;-64
2023/08/30 07:17:53;;;;;;;5.80;3.38;;;19.20;99.90;;;19.73;100.00;100108.94;5215144;28;20045;-64
2023/08/30 07:20:25;;;;;;;5.57;3.47;;;19.30;99.90;;;19.76;100.00;100119.47;5223391;28;20037;-63
2023/08/30 07:22:59;;;;;;;6.80;3.67;;;19.30;99.90;;;19.84;100.00;100108.78;5215432;28;20116;-62
2023/08/30 07:25:32;;;;;;;6.15;3.67;;;19.40;99.90;;;20.01;100.00;100100.59;5205121;28;20045;-66
2023/08/30 07:28:05;;;;;;;5.82;3.58;;;19.50;99.90;;;20.26;100.00;100098.47;5217029;28;20059;-63
2023/08/30 07:30:37;;;;;;;6.63;3.85;;;19.70;99.90;;;20.43;100.00;100095.56;5214936;28;20053;-65
2023/08/30 07:33:10;;;;;;;6.90;3.83;;;19.80;99.90;;;20.57;100.00;100089.16;5223142;28;20041;-65
2023/08/30 07:35:42;;;;;;;5.70;3.28;;;20.00;99.90;;;20.70;100.00;100087.16;5209728;28;20399;-65
2023/08/30 07:38:15;;;;;;;5.32;3.15;;;20.10;99.90;;;20.92;100.00;100090.28;5213943;28;20045;-67
2023/08/30 07:40:47;;;;;;;5.00;3.13;;;20.20;99.90;;;21.09;100.00;100103.22;5208669;28;20045;-64
2023/08/30 07:43:19;;;;;;;6.40;3.33;;;20.40;99.90;;;21.24;100.00;100097.63;5215488;28;20060;-66
2023/08/30 07:45:51;;;;;;;5.30;2.85;;;20.50;99.90;;;21.41;99.22;100094.66;5220796;28;20029;-66
2023/08/30 07:48:24;;;;;;;6.30;3.50;;;20.70;99.90;;;21.56;98.09;100099.66;5214900;28;20050;-64
2023/08/30 07:50:56;;;;;;;5.55;3.08;;;20.80;99.90;;;21.65;97.10;100098.59;5202759;28;20042;-67
2023/08/30 07:54:32;;;;;;;4.85;2.78;;;20.90;99.90;;;21.77;95.92;100097.44;5348219;27;20383;-49
2023/08/30 07:57:06;;;;;;;6.75;2.88;;;21.00;99.90;;;21.94;95.82;100085.53;5322902;27;20062;-50
2023/08/30 07:59:38;;;;;;;4.78;2.72;;;21.20;99.90;;;22.17;94.66;100094.78;5333547;27;20091;-49
2023/08/30 08:02:10;;;;;;;4.40;2.65;;;21.30;99.90;;;22.35;91.82;100102.28;5317767;27;20053;-50
2023/08/30 08:04:43;;;;;;;4.43;2.42;;;21.50;99.90;;;22.51;90.74;100102.81;5311803;27;20144;-50
2023/08/30 08:07:15;;;;;;;5.00;2.50;;;21.60;99.90;;;22.66;89.75;100105.06;5315994;27;20058;-49
2023/08/30 08:09:49;;;;;;;4.50;2.40;;;21.70;99.90;;;22.78;89.24;100105.66;5304487;27;20058;-50
2023/08/30 08:12:21;;;;;;;4.20;2.30;;;21.80;99.80;;;22.95;89.05;100104.34;5316737;27;20047;-49
2023/08/30 08:14:54;;;;;;;5.80;2.83;;;21.90;99.70;;;23.14;88.58;100107.34;5316703;27;20047;-49
2023/08/30 08:17:26;;;;;;;4.13;2.90;;;22.10;99.60;;;23.33;87.30;100102.38;5308012;27;20403;-49
2023/08/30 08:19:59;;;;;;;4.13;2.42;;;22.20;99.10;;;23.57;86.50;100098.16;5314277;27;20414;-51
2023/08/30 08:22:31;;;;;;;3.63;2.05;;;22.30;98.80;;;24.02;85.10;100095.06;5312738;27;20062;-51
2023/08/30 08:25:06;;;;;;;3.22;1.88;;;22.50;98.50;;;24.59;83.21;100097.66;5309895;27;20522;-51
2023/08/30 08:27:38;;;;;;;3.28;2.03;;;22.90;98.20;;;25.09;80.28;100095.03;5328821;27;20431;-52
2023/08/30 08:30:12;;;;;;;4.32;2.00;;;23.20;97.10;;;25.50;78.38;100084.66;5315107;27;20507;-51
2023/08/30 08:32:46;;;;;;;3.25;1.90;;;23.50;96.40;;;25.96;76.54;100080.22;5311372;27;21020;-51
2023/08/30 08:35:18;;;;;;;3.00;1.85;;;23.70;95.70;;;26.47;73.96;100087.06;5319231;27;20053;-51
2023/08/30 08:37:51;;;;;;;4.78;2.55;;;24.10;94.70;;;26.73;71.69;100089.53;5314693;27;20043;-51
2023/08/30 08:40:25;;;;;;;4.10;1.98;;;24.40;93.00;;;26.99;71.57;100079.47;5319277;27;20051;-52
2023/08/30 08:42:58;;;;;;;4.10;1.73;;;24.70;92.70;;;27.27;70.89;100072.00;5316887;27;20127;-52
2023/08/30 08:45:30;;;;;;;4.60;1.90;;;25.10;92.20;;;27.72;70.48;100070.84;5307786;27;20065;-50
2023/08/30 08:48:05;;;;;;;2.80;1.65;;;25.50;91.70;;;28.09;68.45;100079.75;5307008;27;20092;-50
2023/08/30 08:50:38;;;;;;;2.47;1.27;;;25.80;90.50;;;28.40;65.58;100076.47;5315380;27;20051;-50
2023/08/30 08:53:11;;;;;;;3.50;1.80;;;26.20;87.90;;;28.63;64.63;100078.88;5321895;27;20403;-51
2023/08/30 08:55:47;;;;;;;3.05;1.55;;;26.40;85.40;;;29.05;64.70;100074.06;5321208;27;20066;-52
2023/08/30 08:58:19;;;;;;;2.88;1.50;;;26.70;84.70;;;29.36;63.13;100079.53;5313428;27;20047;-52
2023/08/30 09:00:52;;;;;;;2.65;1.40;;;27.00;82.60;;;29.39;62.80;100071.28;5312834;27;20043;-51
2023/08/30 09:03:24;;;;;;;2.35;1.50;;;27.10;81.40;;;28.93;62.33;100083.59;5305625;27;20039;-51
2023/08/30 09:05:57;;;;;;;2.58;1.38;;;27.00;79.30;;;28.27;63.41;100070.81;5305231;27;20039;-50
2023/08/30 09:08:30;;;;;;;2.10;1.40;;;26.60;79.00;;;27.52;64.50;100071.75;5307436;27;20066;-52
2023/08/30 09:11:04;;;;;;;2.22;1.30;;;26.10;79.00;;;27.15;65.45;100069.88;5296082;27;20035;-51
2023/08/30 09:13:36;;;;;;;2.97;1.50;;;25.80;79.50;;;26.91;65.07;100068.25;5298180;27;20084;-50
2023/08/30 09:16:14;;;;;;;3.05;1.50;;;25.60;78.70;;;26.54;66.42;100061.84;5305833;27;20046;-51
2023/08/30 09:18:58;;;;;;;2.67;1.38;;;25.40;79.70;;;26.31;67.73;100059.22;5287755;27;20044;-52
2023/08/30 09:21:31;;;;;;;2.55;1.65;;;25.20;80.80;;;26.19;68.31;100055.25;5286360;28;20066;-52
2023/08/30 09:24:06;;;;;;;2.13;1.42;;;25.10;81.30;;;26.00;68.23;100055.13;5301693;27;20130;-50
2023/08/30 09:26:39;;;;;;;4.25;1.70;;;24.90;81.00;;;25.72;69.22;100063.34;5305305;27;20047;-50
2023/08/30 09:29:12;;;;;;;2.63;1.60;;;24.70;81.50;;;25.59;69.29;100057.59;5298307;27;20043;-50
2023/08/30 09:31:44;;;;;;;2.22;1.45;;;24.60;81.70;;;25.21;69.66;100058.19;5290062;27;20055;-50
2023/08/30 09:34:16;;;;;;;3.50;1.70;;;24.40;81.60;;;24.77;70.78;100061.47;5292917;27;20130;-51
2023/08/30 09:36:50;;;;;;;3.95;1.52;;;24.00;82.10;;;24.31;71.17;100057.69;5292271;27;20057;-52
2023/08/30 09:39:22;;;;;;;2.47;1.38;;;23.70;82.60;;;23.90;72.50;100059.03;5285543;28;20044;-50
2023/08/30 09:41:56;;;;;;;4.00;1.67;;;23.30;83.20;;;23.59;73.80;100047.56;5284972;27;20040;-50
2023/08/30 09:44:31;;;;;;;2.90;1.42;;;23.00;84.50;;;23.37;75.02;100048.22;5296582;27;20040;-52
2023/08/30 09:47:04;;;;;;;4.55;1.88;;;22.80;85.80;;;23.10;75.66;100044.56;5314318;27;20047;-51
2023/08/30 09:49:45;;;;;;;2.35;1.70;;;22.50;86.50;;;22.85;76.56;100028.41;5289582;27;20052;-51
2023/08/30 09:52:18;;;;;;;2.38;1.58;;;22.30;87.40;;;22.73;77.77;100039.34;5305909;27;20047;-51
2023/08/30 09:54:51;;;;;;;3.63;1.38;;;22.20;88.50;;;22.59;78.45;100020.28;5294995;27;20035;-50
2023/08/30 09:57:25;;;;;;;2.83;1.40;;;22.00;89.10;;;22.52;79.39;100016.03;5295315;27;20051;-51
2023/08/30 09:59:59;;;;;;;2.17;1.50;;;21.90;90.10;;;22.44;79.60;100027.75;5291225;27;20046;-51
2023/08/30 10:02:33;;;;;;;3.17;1.40;;;21.90;90.30;;;22.37;80.01;100015.53;5293635;27;20557;-50
2023/08/30 10:05:06;;;;;;;3.05;1.35;;;21.80;90.50;;;22.27;80.43;100013.16;5297921;27;20042;-51
2023/08/30 10:07:40;;;;;;;3.28;1.52;;;21.70;90.60;;;22.19;80.77;100016.00;5317882;27;20062;-51
2023/08/30 10:10:13;;;;;;;3.08;1.63;;;21.60;90.80;;;22.10;81.16;100010.91;5297886;27;20063;-51
2023/08/30 10:12:47;;;;;;;2.70;1.80;;;21.60;91.10;;;22.00;81.42;100004.94;5313554;27;20405;-50
2023/08/30 10:15:22;;;;;;;2.38;1.23;;;21.50;91.20;;;21.94;81.75;100005.94;5301416;27;20050;-49
2023/08/30 10:17:59;;;;;;;3.63;1.70;;;21.40;91.30;;;21.91;82.19;100006.03;5283724;28;20073;-51
2023/08/30 10:20:31;;;;;;;2.78;1.65;;;21.40;91.50;;;21.85;82.81;100011.47;5284983;28;20120;-51
2023/08/30 10:23:04;;;;;;;1.83;1.20;;;21.40;91.80;;;21.78;83.45;100009.88;5295633;27;20047;-51
2023/08/30 10:25:38;;;;;;;3.50;1.60;;;21.30;92.10;;;21.68;84.26;100008.34;5306487;27;20099;-50
2023/08/30 10:28:12;;;;;;;3.53;1.60;;;21.20;92.50;;;21.61;84.86;100030.59;5297494;27;20080;-50
2023/08/30 10:30:45;;;;;;;3.80;1.60;;;21.10;92.80;;;21.53;86.71;100029.91;5288555;27;20039;-50
2023/08/30 10:33:18;;;;;;;4.28;1.88;;;21.00;93.50;;;21.37;89.26;100035.53;5291424;27;20508;-50
2023/08/30 10:35:51;;;;;;;3.70;1.60;;;21.00;94.70;;;21.25;92.50;100029.56;5293308;27;20119;-50
2023/08/30 10:38:27;;;;;;;3.17;1.90;;;20.90;96.20;;;21.15;94.94;100018.31;5291325;27;20286;-51
2023/08/30 10:41:08;;;;;;;3.40;1.73;;;20.80;97.50;;;21.11;97.39;100017.47;5297980;27;20127;-51